sensor_id;sensor_type;location;lat;lon;timestamp;P1;durP1;ratioP1;P2;durP2;ratioP2
17993;SDS011;9122;48.406;9.984;2024-03-06T00:01:51;7.63;;;7.00;;
17993;SDS011;9122;48.406;9.984;2024-03-06T00:04:36;8.40;;;7.60;;
17993;SDS011;9122;48.406;9.984;2024-03-06T00:07:21;8.97;;;8.03;;
17993;SDS011;9122;48.406;9.984;2024-03-06T00:10:05;8.67;;;7.87;;
17993;SDS011;9122;48.406;9.984;2024-03-06T00:12:49;10.13;;;9.13;;
17993;SDS011;9122;48.406;9.984;2024-03-06T00:15:33;8.20;;;7.33;;
17993;SDS011;9122;48.406;9.984;2024-03-06T00:18:18;8.53;;;7.73;;
17993;SDS011;9122;48.406;9.984;2024-03-06T00:21:02;8.07;;;7.47;;
17993;SDS011;9122;48.406;9.984;2024-03-06T00:23:46;8.63;;;7.93;;
17993;SDS011;9122;48.406;9.984;2024-03-06T00:26:31;9.27;;;8.43;;
17993;SDS011;9122;48.406;9.984;2024-03-06T00:29:15;8.77;;;8.10;;
17993;SDS011;9122;48.406;9.984;2024-03-06T00:31:59;9.10;;;8.30;;
17993;SDS011;9122;48.406;9.984;2024-03-06T00:34:44;8.93;;;8.13;;
17993;SDS011;9122;48.406;9.984;2024-03-06T00:37:29;9.10;;;8.27;;
17993;SDS011;9122;48.406;9.984;2024-03-06T00:40:13;9.27;;;8.53;;
17993;SDS011;9122;48.406;9.984;2024-03-06T00:42:58;9.73;;;8.83;;
17993;SDS011;9122;48.406;9.984;2024-03-06T00:45:42;9.20;;;8.43;;
17993;SDS011;9122;48.406;9.984;2024-03-06T00:48:27;9.63;;;8.83;;
17993;SDS011;9122;48.406;9.984;2024-03-06T00:51:11;13.60;;;9.33;;
17993;SDS011;9122;48.406;9.984;2024-03-06T00:53:55;10.33;;;9.33;;
17993;SDS011;9122;48.406;9.984;2024-03-06T00:56:40;11.17;;;10.07;;
17993;SDS011;9122;48.406;9.984;2024-03-06T00:59:24;12.20;;;11.00;;
17993;SDS011;9122;48.406;9.984;2024-03-06T01:02:09;11.10;;;10.10;;
17993;SDS011;9122;48.406;9.984;2024-03-06T01:04:54;11.27;;;9.90;;
17993;SDS011;9122;48.406;9.984;2024-03-06T01:07:39;11.03;;;9.93;;
17993;SDS011;9122;48.406;9.984;2024-03-06T01:10:24;10.77;;;9.67;;
17993;SDS011;9122;48.406;9.984;2024-03-06T01:13:09;12.37;;;10.33;;
17993;SDS011;9122;48.406;9.984;2024-03-06T01:15:54;10.50;;;9.40;;
17993;SDS011;9122;48.406;9.984;2024-03-06T01:18:39;12.33;;;11.23;;
17993;SDS011;9122;48.406;9.984;2024-03-06T01:21:23;12.37;;;11.07;;
17993;SDS011;9122;48.406;9.984;2024-03-06T01:24:07;10.63;;;9.53;;
17993;SDS011;9122;48.406;9.984;2024-03-06T01:26:51;12.33;;;10.80;;
17993;SDS011;9122;48.406;9.984;2024-03-06T01:29:36;11.00;;;9.80;;
17993;SDS011;9122;48.406;9.984;2024-03-06T01:32:20;12.13;;;10.93;;
17993;SDS011;9122;48.406;9.984;2024-03-06T01:35:06;11.40;;;10.23;;
17993;SDS011;9122;48.406;9.984;2024-03-06T01:37:51;11.90;;;10.63;;
17993;SDS011;9122;48.406;9.984;2024-03-06T01:40:35;12.43;;;11.20;;
17993;SDS011;9122;48.406;9.984;2024-03-06T01:43:24;13.23;;;10.40;;
17993;SDS011;9122;48.406;9.984;2024-03-06T01:46:09;13.03;;;11.73;;
17993;SDS011;9122;48.406;9.984;2024-03-06T01:48:53;12.00;;;10.83;;
17993;SDS011;9122;48.406;9.984;2024-03-06T01:51:37;13.00;;;11.70;;
17993;SDS011;9122;48.406;9.984;2024-03-06T01:54:22;12.90;;;11.63;;
17993;SDS011;9122;48.406;9.984;2024-03-06T01:57:07;12.77;;;11.47;;
17993;SDS011;9122;48.406;9.984;2024-03-06T01:59:54;12.23;;;10.93;;
17993;SDS011;9122;48.406;9.984;2024-03-06T02:02:41;11.67;;;10.43;;
17993;SDS011;9122;48.406;9.984;2024-03-06T02:05:27;12.60;;;11.30;;
17993;SDS011;9122;48.406;9.984;2024-03-06T02:08:14;11.63;;;10.63;;
17993;SDS011;9122;48.406;9.984;2024-03-06T02:10:59;12.20;;;11.00;;
17993;SDS011;9122;48.406;9.984;2024-03-06T02:13:46;14.30;;;11.60;;
17993;SDS011;9122;48.406;9.984;2024-03-06T02:16:30;12.67;;;11.37;;
17993;SDS011;9122;48.406;9.984;2024-03-06T02:19:14;13.30;;;12.00;;
17993;SDS011;9122;48.406;9.984;2024-03-06T02:21:59;13.13;;;11.83;;
17993;SDS011;9122;48.406;9.984;2024-03-06T02:24:44;12.50;;;11.17;;
17993;SDS011;9122;48.406;9.984;2024-03-06T02:27:33;12.53;;;11.33;;
17993;SDS011;9122;48.406;9.984;2024-03-06T02:30:20;12.27;;;10.97;;
17993;SDS011;9122;48.406;9.984;2024-03-06T02:33:05;11.73;;;10.43;;
17993;SDS011;9122;48.406;9.984;2024-03-06T02:35:55;11.80;;;10.67;;
17993;SDS011;9122;48.406;9.984;2024-03-06T02:38:40;11.53;;;10.40;;
17993;SDS011;9122;48.406;9.984;2024-03-06T02:41:25;11.70;;;10.50;;
17993;SDS011;9122;48.406;9.984;2024-03-06T02:44:09;11.80;;;10.60;;
17993;SDS011;9122;48.406;9.984;2024-03-06T02:46:53;12.63;;;11.43;;
17993;SDS011;9122;48.406;9.984;2024-03-06T02:49:38;11.80;;;10.70;;
17993;SDS011;9122;48.406;9.984;2024-03-06T02:52:22;12.50;;;11.27;;
17993;SDS011;9122;48.406;9.984;2024-03-06T02:55:06;12.73;;;11.43;;
17993;SDS011;9122;48.406;9.984;2024-03-06T02:57:51;13.30;;;11.93;;
17993;SDS011;9122;48.406;9.984;2024-03-06T03:00:35;11.93;;;10.77;;
17993;SDS011;9122;48.406;9.984;2024-03-06T03:03:20;12.43;;;11.13;;
17993;SDS011;9122;48.406;9.984;2024-03-06T03:06:04;12.37;;;10.93;;
17993;SDS011;9122;48.406;9.984;2024-03-06T03:08:49;12.97;;;11.87;;
17993;SDS011;9122;48.406;9.984;2024-03-06T03:11:33;12.60;;;11.40;;
17993;SDS011;9122;48.406;9.984;2024-03-06T03:14:19;12.53;;;11.43;;
17993;SDS011;9122;48.406;9.984;2024-03-06T03:17:03;13.00;;;11.83;;
17993;SDS011;9122;48.406;9.984;2024-03-06T03:19:51;12.40;;;11.17;;
17993;SDS011;9122;48.406;9.984;2024-03-06T03:22:36;11.40;;;10.43;;
17993;SDS011;9122;48.406;9.984;2024-03-06T03:25:22;11.90;;;10.80;;
17993;SDS011;9122;48.406;9.984;2024-03-06T03:28:07;11.67;;;10.20;;
17993;SDS011;9122;48.406;9.984;2024-03-06T03:30:50;11.17;;;10.17;;
17993;SDS011;9122;48.406;9.984;2024-03-06T03:33:35;11.70;;;10.60;;
17993;SDS011;9122;48.406;9.984;2024-03-06T03:36:22;12.30;;;11.10;;
17993;SDS011;9122;48.406;9.984;2024-03-06T03:39:09;11.03;;;10.03;;
17993;SDS011;9122;48.406;9.984;2024-03-06T03:41:59;11.27;;;10.27;;
17993;SDS011;9122;48.406;9.984;2024-03-06T03:44:43;10.53;;;9.63;;
17993;SDS011;9122;48.406;9.984;2024-03-06T03:47:27;10.27;;;9.30;;
17993;SDS011;9122;48.406;9.984;2024-03-06T03:50:12;11.33;;;10.17;;
17993;SDS011;9122;48.406;9.984;2024-03-06T03:52:57;11.00;;;9.87;;
17993;SDS011;9122;48.406;9.984;2024-03-06T03:55:44;11.10;;;10.00;;
17993;SDS011;9122;48.406;9.984;2024-03-06T03:58:29;10.23;;;9.23;;
17993;SDS011;9122;48.406;9.984;2024-03-06T04:01:14;10.33;;;9.43;;
17993;SDS011;9122;48.406;9.984;2024-03-06T04:03:59;11.20;;;10.20;;
17993;SDS011;9122;48.406;9.984;2024-03-06T04:06:43;10.50;;;9.60;;
17993;SDS011;9122;48.406;9.984;2024-03-06T04:09:29;11.50;;;10.40;;
17993;SDS011;9122;48.406;9.984;2024-03-06T04:12:13;11.73;;;10.57;;
17993;SDS011;9122;48.406;9.984;2024-03-06T04:14:57;10.37;;;9.27;;
17993;SDS011;9122;48.406;9.984;2024-03-06T04:17:41;9.53;;;8.70;;
17993;SDS011;9122;48.406;9.984;2024-03-06T04:20:25;10.90;;;9.80;;
17993;SDS011;9122;48.406;9.984;2024-03-06T04:23:10;10.20;;;9.30;;
17993;SDS011;9122;48.406;9.984;2024-03-06T04:25:54;9.70;;;8.90;;
17993;SDS011;9122;48.406;9.984;2024-03-06T04:28:39;10.10;;;8.93;;
17993;SDS011;9122;48.406;9.984;2024-03-06T04:31:24;10.50;;;9.43;;
17993;SDS011;9122;48.406;9.984;2024-03-06T04:34:08;10.77;;;9.60;;
17993;SDS011;9122;48.406;9.984;2024-03-06T04:36:53;11.20;;;10.10;;
17993;SDS011;9122;48.406;9.984;2024-03-06T04:39:37;9.70;;;8.80;;
17993;SDS011;9122;48.406;9.984;2024-03-06T04:42:21;9.87;;;9.07;;
17993;SDS011;9122;48.406;9.984;2024-03-06T04:45:13;9.37;;;8.37;;
17993;SDS011;9122;48.406;9.984;2024-03-06T04:47:59;9.03;;;8.10;;
17993;SDS011;9122;48.406;9.984;2024-03-06T04:50:43;8.17;;;7.47;;
17993;SDS011;9122;48.406;9.984;2024-03-06T04:53:28;9.73;;;7.30;;
17993;SDS011;9122;48.406;9.984;2024-03-06T04:56:12;8.70;;;8.00;;
17993;SDS011;9122;48.406;9.984;2024-03-06T04:58:57;7.83;;;7.20;;
17993;SDS011;9122;48.406;9.984;2024-03-06T05:01:47;8.50;;;7.80;;
17993;SDS011;9122;48.406;9.984;2024-03-06T05:04:31;7.40;;;6.80;;
17993;SDS011;9122;48.406;9.984;2024-03-06T05:07:16;7.93;;;7.27;;
17993;SDS011;9122;48.406;9.984;2024-03-06T05:10:00;7.33;;;6.20;;
17993;SDS011;9122;48.406;9.984;2024-03-06T05:12:45;6.50;;;6.00;;
17993;SDS011;9122;48.406;9.984;2024-03-06T05:15:29;6.90;;;6.30;;
17993;SDS011;9122;48.406;9.984;2024-03-06T05:18:14;6.47;;;5.87;;
17993;SDS011;9122;48.406;9.984;2024-03-06T05:20:58;7.53;;;6.87;;
17993;SDS011;9122;48.406;9.984;2024-03-06T05:23:42;7.57;;;6.87;;
17993;SDS011;9122;48.406;9.984;2024-03-06T05:26:26;7.00;;;6.40;;
17993;SDS011;9122;48.406;9.984;2024-03-06T05:29:11;7.07;;;6.47;;
17993;SDS011;9122;48.406;9.984;2024-03-06T05:31:55;7.83;;;7.07;;
17993;SDS011;9122;48.406;9.984;2024-03-06T05:34:40;7.73;;;7.03;;
17993;SDS011;9122;48.406;9.984;2024-03-06T05:37:25;7.40;;;6.80;;
17993;SDS011;9122;48.406;9.984;2024-03-06T05:40:10;6.97;;;6.27;;
17993;SDS011;9122;48.406;9.984;2024-03-06T05:42:55;7.17;;;6.57;;
17993;SDS011;9122;48.406;9.984;2024-03-06T05:45:39;7.43;;;6.67;;
17993;SDS011;9122;48.406;9.984;2024-03-06T05:48:24;6.43;;;5.83;;
17993;SDS011;9122;48.406;9.984;2024-03-06T05:51:09;6.37;;;5.87;;
17993;SDS011;9122;48.406;9.984;2024-03-06T05:53:53;6.40;;;5.80;;
17993;SDS011;9122;48.406;9.984;2024-03-06T05:56:38;5.97;;;5.37;;
17993;SDS011;9122;48.406;9.984;2024-03-06T05:59:23;5.60;;;5.20;;
17993;SDS011;9122;48.406;9.984;2024-03-06T06:02:07;5.87;;;5.37;;
17993;SDS011;9122;48.406;9.984;2024-03-06T06:04:51;5.33;;;4.93;;
17993;SDS011;9122;48.406;9.984;2024-03-06T06:07:36;6.00;;;5.47;;
17993;SDS011;9122;48.406;9.984;2024-03-06T06:10:21;5.80;;;5.30;;
17993;SDS011;9122;48.406;9.984;2024-03-06T06:13:05;5.50;;;5.10;;
17993;SDS011;9122;48.406;9.984;2024-03-06T06:15:50;4.87;;;4.47;;
17993;SDS011;9122;48.406;9.984;2024-03-06T06:18:35;5.07;;;4.67;;
17993;SDS011;9122;48.406;9.984;2024-03-06T06:21:19;5.47;;;5.07;;
17993;SDS011;9122;48.406;9.984;2024-03-06T06:24:05;5.60;;;5.10;;
17993;SDS011;9122;48.406;9.984;2024-03-06T06:26:51;5.90;;;5.40;;
17993;SDS011;9122;48.406;9.984;2024-03-06T06:29:35;5.20;;;4.67;;
17993;SDS011;9122;48.406;9.984;2024-03-06T06:32:23;6.13;;;5.63;;
17993;SDS011;9122;48.406;9.984;2024-03-06T06:35:11;5.73;;;5.23;;
17993;SDS011;9122;48.406;9.984;2024-03-06T06:37:57;5.00;;;4.60;;
17993;SDS011;9122;48.406;9.984;2024-03-06T06:40:41;4.97;;;4.57;;
17993;SDS011;9122;48.406;9.984;2024-03-06T06:43:26;5.33;;;4.93;;
17993;SDS011;9122;48.406;9.984;2024-03-06T06:46:11;5.80;;;5.20;;
17993;SDS011;9122;48.406;9.984;2024-03-06T06:48:56;6.17;;;5.67;;
17993;SDS011;9122;48.406;9.984;2024-03-06T06:51:41;6.63;;;5.40;;
17993;SDS011;9122;48.406;9.984;2024-03-06T06:54:25;6.00;;;5.40;;
17993;SDS011;9122;48.406;9.984;2024-03-06T06:57:09;6.33;;;5.83;;
17993;SDS011;9122;48.406;9.984;2024-03-06T06:59:57;5.40;;;4.90;;
17993;SDS011;9122;48.406;9.984;2024-03-06T07:02:42;6.43;;;5.83;;
17993;SDS011;9122;48.406;9.984;2024-03-06T07:05:26;6.87;;;6.17;;
17993;SDS011;9122;48.406;9.984;2024-03-06T07:08:14;6.93;;;6.37;;
17993;SDS011;9122;48.406;9.984;2024-03-06T07:11:06;6.37;;;5.87;;
17993;SDS011;9122;48.406;9.984;2024-03-06T07:13:50;6.47;;;5.97;;
17993;SDS011;9122;48.406;9.984;2024-03-06T07:16:41;6.67;;;6.07;;
17993;SDS011;9122;48.406;9.984;2024-03-06T07:19:26;8.70;;;7.90;;
17993;SDS011;9122;48.406;9.984;2024-03-06T07:22:11;6.90;;;6.37;;
17993;SDS011;9122;48.406;9.984;2024-03-06T07:24:55;6.17;;;5.67;;
17993;SDS011;9122;48.406;9.984;2024-03-06T07:27:39;6.43;;;5.90;;
17993;SDS011;9122;48.406;9.984;2024-03-06T07:30:24;5.97;;;5.47;;
17993;SDS011;9122;48.406;9.984;2024-03-06T07:33:08;6.00;;;5.50;;
17993;SDS011;9122;48.406;9.984;2024-03-06T07:35:53;6.17;;;5.57;;
17993;SDS011;9122;48.406;9.984;2024-03-06T07:38:37;5.47;;;5.10;;
17993;SDS011;9122;48.406;9.984;2024-03-06T07:41:21;6.23;;;5.73;;
17993;SDS011;9122;48.406;9.984;2024-03-06T07:44:06;7.03;;;6.43;;
17993;SDS011;9122;48.406;9.984;2024-03-06T07:46:51;6.90;;;6.20;;
17993;SDS011;9122;48.406;9.984;2024-03-06T07:49:38;6.43;;;5.93;;
17993;SDS011;9122;48.406;9.984;2024-03-06T07:52:22;6.93;;;6.33;;
17993;SDS011;9122;48.406;9.984;2024-03-06T07:55:06;7.13;;;6.57;;
17993;SDS011;9122;48.406;9.984;2024-03-06T07:57:52;6.87;;;6.17;;
17993;SDS011;9122;48.406;9.984;2024-03-06T08:00:36;7.20;;;6.27;;
17993;SDS011;9122;48.406;9.984;2024-03-06T08:03:21;6.83;;;6.07;;
17993;SDS011;9122;48.406;9.984;2024-03-06T08:06:06;6.60;;;6.10;;
17993;SDS011;9122;48.406;9.984;2024-03-06T08:08:50;6.50;;;5.90;;
17993;SDS011;9122;48.406;9.984;2024-03-06T08:11:35;6.70;;;6.10;;
17993;SDS011;9122;48.406;9.984;2024-03-06T08:14:20;6.57;;;6.00;;
17993;SDS011;9122;48.406;9.984;2024-03-06T08:17:04;7.10;;;6.50;;
17993;SDS011;9122;48.406;9.984;2024-03-06T08:19:50;7.10;;;6.50;;
17993;SDS011;9122;48.406;9.984;2024-03-06T08:22:38;7.00;;;6.40;;
17993;SDS011;9122;48.406;9.984;2024-03-06T08:25:23;7.70;;;6.93;;
17993;SDS011;9122;48.406;9.984;2024-03-06T08:28:07;7.47;;;6.80;;
17993;SDS011;9122;48.406;9.984;2024-03-06T08:30:53;7.93;;;7.23;;
17993;SDS011;9122;48.406;9.984;2024-03-06T08:33:38;8.00;;;7.30;;
17993;SDS011;9122;48.406;9.984;2024-03-06T08:36:23;7.10;;;6.50;;
17993;SDS011;9122;48.406;9.984;2024-03-06T08:39:08;8.53;;;7.83;;
17993;SDS011;9122;48.406;9.984;2024-03-06T08:41:56;7.60;;;6.90;;
17993;SDS011;9122;48.406;9.984;2024-03-06T08:44:41;7.80;;;7.20;;
17993;SDS011;9122;48.406;9.984;2024-03-06T08:47:26;8.10;;;7.30;;
17993;SDS011;9122;48.406;9.984;2024-03-06T08:50:11;8.37;;;7.67;;
17993;SDS011;9122;48.406;9.984;2024-03-06T08:52:56;7.13;;;6.53;;
17993;SDS011;9122;48.406;9.984;2024-03-06T08:55:40;8.10;;;7.40;;
17993;SDS011;9122;48.406;9.984;2024-03-06T08:58:24;8.57;;;7.80;;
17993;SDS011;9122;48.406;9.984;2024-03-06T09:01:08;9.47;;;8.27;;
17993;SDS011;9122;48.406;9.984;2024-03-06T09:03:53;7.87;;;7.23;;
17993;SDS011;9122;48.406;9.984;2024-03-06T09:06:37;8.80;;;8.00;;
17993;SDS011;9122;48.406;9.984;2024-03-06T09:09:21;8.07;;;7.27;;
17993;SDS011;9122;48.406;9.984;2024-03-06T09:12:06;8.37;;;7.57;;
17993;SDS011;9122;48.406;9.984;2024-03-06T09:14:55;8.53;;;7.73;;
17993;SDS011;9122;48.406;9.984;2024-03-06T09:17:40;9.73;;;8.33;;
17993;SDS011;9122;48.406;9.984;2024-03-06T09:20:25;9.10;;;8.30;;
17993;SDS011;9122;48.406;9.984;2024-03-06T09:23:14;9.50;;;8.63;;
17993;SDS011;9122;48.406;9.984;2024-03-06T09:25:59;11.13;;;9.77;;
17993;SDS011;9122;48.406;9.984;2024-03-06T09:28:43;10.10;;;9.10;;
17993;SDS011;9122;48.406;9.984;2024-03-06T09:31:28;9.67;;;8.77;;
17993;SDS011;9122;48.406;9.984;2024-03-06T09:34:12;8.23;;;7.43;;
17993;SDS011;9122;48.406;9.984;2024-03-06T09:36:57;8.37;;;7.63;;
17993;SDS011;9122;48.406;9.984;2024-03-06T09:39:41;8.53;;;7.80;;
17993;SDS011;9122;48.406;9.984;2024-03-06T09:42:26;8.63;;;7.83;;
17993;SDS011;9122;48.406;9.984;2024-03-06T09:45:10;9.03;;;8.17;;
17993;SDS011;9122;48.406;9.984;2024-03-06T09:47:54;9.00;;;7.73;;
17993;SDS011;9122;48.406;9.984;2024-03-06T09:50:40;8.43;;;7.63;;
17993;SDS011;9122;48.406;9.984;2024-03-06T09:53:29;9.10;;;8.20;;
17993;SDS011;9122;48.406;9.984;2024-03-06T09:56:14;8.53;;;7.73;;
17993;SDS011;9122;48.406;9.984;2024-03-06T09:58:59;8.07;;;7.37;;
17993;SDS011;9122;48.406;9.984;2024-03-06T10:01:57;8.23;;;7.43;;
17993;SDS011;9122;48.406;9.984;2024-03-06T10:04:42;9.40;;;8.37;;
17993;SDS011;9122;48.406;9.984;2024-03-06T10:07:27;10.30;;;8.47;;
17993;SDS011;9122;48.406;9.984;2024-03-06T10:10:11;8.00;;;7.20;;
17993;SDS011;9122;48.406;9.984;2024-03-06T10:12:55;7.93;;;7.23;;
17993;SDS011;9122;48.406;9.984;2024-03-06T10:15:40;7.47;;;6.77;;
17993;SDS011;9122;48.406;9.984;2024-03-06T10:18:28;7.73;;;7.07;;
17993;SDS011;9122;48.406;9.984;2024-03-06T10:21:13;6.67;;;6.17;;
17993;SDS011;9122;48.406;9.984;2024-03-06T10:23:58;7.33;;;6.73;;
17993;SDS011;9122;48.406;9.984;2024-03-06T10:26:43;6.97;;;6.33;;
17993;SDS011;9122;48.406;9.984;2024-03-06T10:29:28;6.70;;;6.00;;
17993;SDS011;9122;48.406;9.984;2024-03-06T10:32:16;7.07;;;6.37;;
17993;SDS011;9122;48.406;9.984;2024-03-06T10:35:02;7.20;;;6.60;;
17993;SDS011;9122;48.406;9.984;2024-03-06T10:37:50;6.97;;;6.43;;
17993;SDS011;9122;48.406;9.984;2024-03-06T10:40:37;7.47;;;6.27;;
17993;SDS011;9122;48.406;9.984;2024-03-06T10:43:23;6.30;;;5.70;;
17993;SDS011;9122;48.406;9.984;2024-03-06T10:46:08;6.23;;;5.73;;
17993;SDS011;9122;48.406;9.984;2024-03-06T10:48:55;6.27;;;5.67;;
17993;SDS011;9122;48.406;9.984;2024-03-06T10:51:42;6.80;;;6.20;;
17993;SDS011;9122;48.406;9.984;2024-03-06T10:54:30;6.47;;;5.87;;
17993;SDS011;9122;48.406;9.984;2024-03-06T10:57:16;5.03;;;4.63;;
17993;SDS011;9122;48.406;9.984;2024-03-06T11:00:02;5.90;;;5.40;;
17993;SDS011;9122;48.406;9.984;2024-03-06T11:02:46;5.40;;;5.00;;
17993;SDS011;9122;48.406;9.984;2024-03-06T11:05:34;6.13;;;5.50;;
17993;SDS011;9122;48.406;9.984;2024-03-06T11:08:20;5.50;;;5.07;;
17993;SDS011;9122;48.406;9.984;2024-03-06T11:11:19;5.77;;;5.17;;
17993;SDS011;9122;48.406;9.984;2024-03-06T11:14:07;5.03;;;4.63;;
17993;SDS011;9122;48.406;9.984;2024-03-06T11:16:56;5.40;;;5.00;;
17993;SDS011;9122;48.406;9.984;2024-03-06T11:28:48;5.17;;;4.77;;
17993;SDS011;9122;48.406;9.984;2024-03-06T11:31:34;5.60;;;5.20;;
17993;SDS011;9122;48.406;9.984;2024-03-06T11:34:19;5.47;;;5.03;;
17993;SDS011;9122;48.406;9.984;2024-03-06T11:37:06;6.00;;;5.50;;
17993;SDS011;9122;48.406;9.984;2024-03-06T11:39:59;6.50;;;5.83;;
17993;SDS011;9122;48.406;9.984;2024-03-06T11:42:45;6.90;;;6.30;;
17993;SDS011;9122;48.406;9.984;2024-03-06T11:45:32;6.27;;;5.67;;
17993;SDS011;9122;48.406;9.984;2024-03-06T11:48:28;6.80;;;6.10;;
17993;SDS011;9122;48.406;9.984;2024-03-06T11:51:12;6.50;;;5.90;;
17993;SDS011;9122;48.406;9.984;2024-03-06T11:53:56;6.40;;;5.90;;
17993;SDS011;9122;48.406;9.984;2024-03-06T11:56:43;6.63;;;6.03;;
17993;SDS011;9122;48.406;9.984;2024-03-06T11:59:33;6.97;;;6.37;;
17993;SDS011;9122;48.406;9.984;2024-03-06T12:02:19;6.40;;;5.90;;
17993;SDS011;9122;48.406;9.984;2024-03-06T12:05:04;6.27;;;5.70;;
17993;SDS011;9122;48.406;9.984;2024-03-06T12:07:49;6.73;;;6.13;;
17993;SDS011;9122;48.406;9.984;2024-03-06T12:10:38;6.63;;;6.07;;
17993;SDS011;9122;48.406;9.984;2024-03-06T12:13:23;6.33;;;5.73;;
17993;SDS011;9122;48.406;9.984;2024-03-06T12:16:08;6.90;;;6.30;;
17993;SDS011;9122;48.406;9.984;2024-03-06T12:18:54;7.07;;;6.37;;
17993;SDS011;9122;48.406;9.984;2024-03-06T12:21:41;7.40;;;6.80;;
17993;SDS011;9122;48.406;9.984;2024-03-06T12:24:26;6.93;;;6.33;;
17993;SDS011;9122;48.406;9.984;2024-03-06T12:27:11;7.27;;;6.57;;
17993;SDS011;9122;48.406;9.984;2024-03-06T12:29:56;6.97;;;6.40;;
17993;SDS011;9122;48.406;9.984;2024-03-06T12:32:41;6.83;;;6.17;;
17993;SDS011;9122;48.406;9.984;2024-03-06T12:35:26;6.57;;;5.97;;
17993;SDS011;9122;48.406;9.984;2024-03-06T12:38:11;5.97;;;5.47;;
17993;SDS011;9122;48.406;9.984;2024-03-06T12:40:59;6.73;;;6.17;;
17993;SDS011;9122;48.406;9.984;2024-03-06T12:43:44;7.23;;;6.60;;
17993;SDS011;9122;48.406;9.984;2024-03-06T12:46:28;6.00;;;5.50;;
17993;SDS011;9122;48.406;9.984;2024-03-06T12:49:13;6.77;;;6.00;;
17993;SDS011;9122;48.406;9.984;2024-03-06T12:51:58;5.63;;;5.23;;
17993;SDS011;9122;48.406;9.984;2024-03-06T12:54:43;6.07;;;5.57;;
17993;SDS011;9122;48.406;9.984;2024-03-06T12:57:27;5.73;;;5.30;;
17993;SDS011;9122;48.406;9.984;2024-03-06T13:00:11;6.17;;;5.67;;
17993;SDS011;9122;48.406;9.984;2024-03-06T13:02:59;6.23;;;5.63;;
17993;SDS011;9122;48.406;9.984;2024-03-06T13:05:44;5.90;;;5.50;;
17993;SDS011;9122;48.406;9.984;2024-03-06T13:08:31;5.47;;;4.97;;
17993;SDS011;9122;48.406;9.984;2024-03-06T13:11:15;6.23;;;5.73;;
17993;SDS011;9122;48.406;9.984;2024-03-06T13:14:00;6.07;;;5.57;;
17993;SDS011;9122;48.406;9.984;2024-03-06T13:16:44;5.97;;;5.47;;
17993;SDS011;9122;48.406;9.984;2024-03-06T13:19:29;6.30;;;5.80;;
17993;SDS011;9122;48.406;9.984;2024-03-06T13:22:14;6.03;;;5.63;;
17993;SDS011;9122;48.406;9.984;2024-03-06T13:24:58;6.07;;;5.57;;
17993;SDS011;9122;48.406;9.984;2024-03-06T13:27:42;5.87;;;5.37;;
17993;SDS011;9122;48.406;9.984;2024-03-06T13:30:27;6.67;;;6.17;;
17993;SDS011;9122;48.406;9.984;2024-03-06T13:33:11;6.00;;;5.37;;
17993;SDS011;9122;48.406;9.984;2024-03-06T13:35:56;6.20;;;5.67;;
17993;SDS011;9122;48.406;9.984;2024-03-06T13:38:41;7.83;;;5.93;;
17993;SDS011;9122;48.406;9.984;2024-03-06T13:41:25;5.97;;;5.47;;
17993;SDS011;9122;48.406;9.984;2024-03-06T13:44:10;5.80;;;5.30;;
17993;SDS011;9122;48.406;9.984;2024-03-06T13:46:54;6.03;;;5.53;;
17993;SDS011;9122;48.406;9.984;2024-03-06T13:49:40;5.13;;;4.73;;
17993;SDS011;9122;48.406;9.984;2024-03-06T13:52:25;6.53;;;5.80;;
17993;SDS011;9122;48.406;9.984;2024-03-06T13:55:09;5.90;;;5.40;;
17993;SDS011;9122;48.406;9.984;2024-03-06T13:57:54;5.13;;;4.73;;
17993;SDS011;9122;48.406;9.984;2024-03-06T14:00:38;5.63;;;5.20;;
17993;SDS011;9122;48.406;9.984;2024-03-06T14:03:22;6.77;;;6.07;;
17993;SDS011;9122;48.406;9.984;2024-03-06T14:06:08;5.50;;;4.97;;
17993;SDS011;9122;48.406;9.984;2024-03-06T14:08:53;6.10;;;5.60;;
17993;SDS011;9122;48.406;9.984;2024-03-06T14:11:39;6.23;;;5.63;;
17993;SDS011;9122;48.406;9.984;2024-03-06T14:14:24;8.67;;;7.20;;
17993;SDS011;9122;48.406;9.984;2024-03-06T14:17:09;8.23;;;6.57;;
17993;SDS011;9122;48.406;9.984;2024-03-06T14:19:53;7.43;;;6.73;;
17993;SDS011;9122;48.406;9.984;2024-03-06T14:22:38;7.10;;;6.40;;
17993;SDS011;9122;48.406;9.984;2024-03-06T14:25:22;6.27;;;5.77;;
17993;SDS011;9122;48.406;9.984;2024-03-06T14:28:08;5.67;;;5.20;;
17993;SDS011;9122;48.406;9.984;2024-03-06T14:30:53;10.23;;;9.23;;
17993;SDS011;9122;48.406;9.984;2024-03-06T14:33:39;6.30;;;5.80;;
17993;SDS011;9122;48.406;9.984;2024-03-06T14:36:24;6.90;;;6.37;;
17993;SDS011;9122;48.406;9.984;2024-03-06T14:39:08;9.30;;;7.67;;
17993;SDS011;9122;48.406;9.984;2024-03-06T14:41:54;6.90;;;5.73;;
17993;SDS011;9122;48.406;9.984;2024-03-06T14:44:40;6.00;;;5.50;;
17993;SDS011;9122;48.406;9.984;2024-03-06T14:47:24;5.53;;;5.00;;
17993;SDS011;9122;48.406;9.984;2024-03-06T14:50:10;6.10;;;5.60;;
17993;SDS011;9122;48.406;9.984;2024-03-06T14:52:54;5.60;;;5.10;;
17993;SDS011;9122;48.406;9.984;2024-03-06T14:55:38;5.40;;;5.00;;
17993;SDS011;9122;48.406;9.984;2024-03-06T14:58:23;4.67;;;4.33;;
17993;SDS011;9122;48.406;9.984;2024-03-06T15:01:07;5.10;;;4.60;;
17993;SDS011;9122;48.406;9.984;2024-03-06T15:03:51;5.67;;;5.17;;
17993;SDS011;9122;48.406;9.984;2024-03-06T15:06:37;5.03;;;4.63;;
17993;SDS011;9122;48.406;9.984;2024-03-06T15:09:22;5.07;;;4.57;;
17993;SDS011;9122;48.406;9.984;2024-03-06T15:12:09;5.57;;;4.77;;
17993;SDS011;9122;48.406;9.984;2024-03-06T15:14:54;7.10;;;4.97;;
17993;SDS011;9122;48.406;9.984;2024-03-06T15:17:40;6.23;;;5.70;;
17993;SDS011;9122;48.406;9.984;2024-03-06T15:20:25;6.23;;;5.63;;
17993;SDS011;9122;48.406;9.984;2024-03-06T15:23:11;5.43;;;4.93;;
17993;SDS011;9122;48.406;9.984;2024-03-06T15:25:55;6.40;;;5.90;;
17993;SDS011;9122;48.406;9.984;2024-03-06T15:28:39;5.50;;;4.73;;
17993;SDS011;9122;48.406;9.984;2024-03-06T15:31:23;5.83;;;5.33;;
17993;SDS011;9122;48.406;9.984;2024-03-06T15:34:09;5.77;;;4.97;;
17993;SDS011;9122;48.406;9.984;2024-03-06T15:36:54;4.83;;;4.43;;
17993;SDS011;9122;48.406;9.984;2024-03-06T15:39:38;6.00;;;5.50;;
17993;SDS011;9122;48.406;9.984;2024-03-06T15:42:23;5.30;;;4.80;;
17993;SDS011;9122;48.406;9.984;2024-03-06T15:45:08;8.13;;;6.63;;
17993;SDS011;9122;48.406;9.984;2024-03-06T15:47:58;6.90;;;6.07;;
17993;SDS011;9122;48.406;9.984;2024-03-06T15:50:43;6.03;;;5.43;;
17993;SDS011;9122;48.406;9.984;2024-03-06T15:53:27;6.43;;;5.67;;
17993;SDS011;9122;48.406;9.984;2024-03-06T15:56:13;5.87;;;5.27;;
17993;SDS011;9122;48.406;9.984;2024-03-06T15:58:58;6.30;;;5.53;;
17993;SDS011;9122;48.406;9.984;2024-03-06T16:01:42;6.23;;;5.50;;
17993;SDS011;9122;48.406;9.984;2024-03-06T16:04:27;6.47;;;5.43;;
17993;SDS011;9122;48.406;9.984;2024-03-06T16:07:12;7.07;;;6.47;;
17993;SDS011;9122;48.406;9.984;2024-03-06T16:09:58;9.17;;;6.37;;
17993;SDS011;9122;48.406;9.984;2024-03-06T16:12:43;7.10;;;6.40;;
17993;SDS011;9122;48.406;9.984;2024-03-06T16:15:27;8.13;;;7.33;;
17993;SDS011;9122;48.406;9.984;2024-03-06T16:18:11;10.93;;;9.63;;
17993;SDS011;9122;48.406;9.984;2024-03-06T16:20:55;11.10;;;9.03;;
17993;SDS011;9122;48.406;9.984;2024-03-06T16:23:39;16.73;;;12.13;;
17993;SDS011;9122;48.406;9.984;2024-03-06T16:26:27;15.97;;;11.70;;
17993;SDS011;9122;48.406;9.984;2024-03-06T16:29:12;14.00;;;12.47;;
17993;SDS011;9122;48.406;9.984;2024-03-06T16:31:57;11.43;;;10.23;;
17993;SDS011;9122;48.406;9.984;2024-03-06T16:34:42;10.17;;;9.17;;
17993;SDS011;9122;48.406;9.984;2024-03-06T16:37:27;8.90;;;7.97;;
17993;SDS011;9122;48.406;9.984;2024-03-06T16:40:11;8.57;;;7.53;;
17993;SDS011;9122;48.406;9.984;2024-03-06T16:42:56;9.13;;;7.20;;
17993;SDS011;9122;48.406;9.984;2024-03-06T16:45:40;7.80;;;7.00;;
17993;SDS011;9122;48.406;9.984;2024-03-06T16:48:25;7.53;;;6.83;;
17993;SDS011;9122;48.406;9.984;2024-03-06T16:51:10;8.23;;;7.30;;
17993;SDS011;9122;48.406;9.984;2024-03-06T16:54:01;10.07;;;7.67;;